x

Port Orford - 15 Nm West Of Port Orford, Or (46015) Wave Buoy

11:50am - Thu 11th Feb 2016 All times are PST. -8 hours from GMT.

  • Sig Wave height 9.2ft
  • Swell Direction
  • Peak Period 21s
  • Average Period 11s
  • Wind
    11mph
  • Sea Temp 53°f
  • Air Temp 54°f
  • Sea Pressure 1019.5mb
  • Port Orford - 15 Nm West Of Port Orford, Or
  • Port Orford - 15 Nm West Of Port Orford, Or

More Historic Weather Station data

Upgrade to MSW Pro to gain access to the past 30 days of data for over 8000 Wavebouys and Weather Stations around the globe.

Join Pro

Comparision Forecast

View Surf forecast
   
Thu 02/11 11:50am 9ft 21s 11s 11
mph
1019.5mb 53f 54f
10:50am 10ft 21s 11s 9 13 mph 1019.2mb 53f 54f
9:50am 9.5ft 21s 11s 7 9 mph 1019.6mb 52f 54f
8:50am 8ft 21s 10s 9 11 mph 1019.4mb 52f 54f
7:50am 10ft 21s 12s 4
mph
1018.8mb 52f 54f
3:50am 8ft 21s 10s 2 4 mph 1020mb 53f 53f
2:50am 8ft 11s 9s 7 9 mph 1020.3mb 52f 53f
1:50am 8.5ft 12s 9s 7
mph
1019.9mb 53f 53f
12:50am 8ft 11s 9s 2 4 mph 1019.6mb 53f 53f
Wed 02/10 11:50pm 7.5ft 10s 8s 4
mph
1020.2mb 53f 53f
10:50pm 7.5ft 10s 9s 4
mph
1021.3mb 53f 53f
9:50pm 7ft 12s 8s 9 11 mph 1021.8mb 53f 52f
8:50pm 7.5ft 11s 8s 4 7 mph 1022.8mb 53f 52f
7:50pm 7ft 11s 8s 2 4 mph 1023.1mb 53f 52f
6:50pm 7ft 11s 8s  -  2 mph 1023.2mb 53f 53f
5:50pm 7ft 12s 7s 7 9 mph 1023.2mb 53f 53f
4:50pm 6.5ft 11s 7s 9
mph
1023.8mb 53f 53f
3:50pm 7ft 12s 7s 11 13 mph 1024.4mb 53f 53f
2:50pm 7ft 11s 7s 13 16 mph 1024.2mb 53f 54f
1:50pm 7ft 10s 6s 18 22 mph 1024.3mb 53f 55f
12:50pm 6ft 12s 6s 18 20 mph 1024.6mb 53f 55f
11:50am 6ft 11s 6s 20 25 mph 1024.8mb 52f 54f
10:50am 6ft 11s 6s 20 25 mph 1024.5mb 52f 54f
9:50am 6ft 13s 6s 22 25 mph 1023.8mb 52f 54f
8:50am 6ft 11s 6s 20 25 mph 1023.4mb 53f 53f
7:50am 7ft 12s 6s 22 27 mph 1023.3mb 52f 54f
6:50am 6ft 12s 5s 22 27 mph 1022.6mb 52f 54f
5:50am 6.5ft 11s 6s 22 27 mph 1021.9mb 52f 54f
4:50am 6.5ft 13s 7s 22 27 mph 1020.3mb 52f 54f
3:50am 7ft 13s 8s 20 22 mph 1020.2mb 52f 54f
2:50am 7.5ft 11s 8s 16 18 mph 1020.6mb 52f 55f
1:50am 6.5ft 13s 8s 11 13 mph 1020.3mb 53f 54f
12:50am 7ft 13s 8s 11 13 mph 1019.9mb 53f 53f
Tue 02/09 11:50pm 7ft 12s 9s 9 13 mph 1020.5mb 53f 53f
10:50pm 6ft 11s 8s 9 11 mph 1020.4mb 53f 53f
9:50pm 6ft 12s 8s 16 18 mph 1019.4mb 53f 54f
8:50pm 5.5ft 12s 8s 11 13 mph 1018.9mb 53f 54f
7:50pm 6ft 13s 8s 13 16 mph 1018.8mb 53f 54f
6:50pm 7ft 13s 9s 13 16 mph 1018.8mb 53f 55f
5:50pm 6ft 14s 8s 13 18 mph 1019.2mb 53f 55f
4:50pm 6ft 14s 8s 16 18 mph 1019.9mb 53f 55f
3:50pm 6.5ft 14s 8s 18 20 mph 1020.3mb 53f 56f
2:50pm 5.5ft 13s 8s 16 18 mph 1020.2mb 53f 55f
1:50pm 7ft 13s 8s 13 16 mph 1020.1mb 53f 56f
12:50pm 6ft 14s 9s 16 18 mph 1019.9mb 53f 57f
11:50am 6ft 12s 8s 13 16 mph 1019.6mb 53f 57f
10:50am 7ft 13s 10s 13 18 mph 1019.5mb 52f 57f
9:50am 8.5ft 13s 11s 11 13 mph 1019.2mb 52f 57f
8:50am 9ft 14s 11s 11 13 mph 1019.4mb 52f 57f
7:50am 10.5ft 13s 11s 9 11 mph 1019.5mb 52f 55f
6:50am 9.5ft 14s 11s 7 9 mph 1019.5mb 52f 55f
5:50am 10.5ft 13s 11s 9 11 mph 1019.4mb 52f 55f
4:50am 9.5ft 14s 12s 7 11 mph 1018.7mb 52f 55f
3:50am 10ft 14s 12s 7 9 mph 1018.9mb 52f 55f
2:50am 10ft 14s 12s 9 11 mph 1019.3mb 52f 55f
1:50am 10ft 15s 12s 11 13 mph 1019.4mb 52f 56f
12:50am 8.5ft 15s 12s 9 11 mph 1019.7mb 52f 55f
Mon 02/08 11:50pm 9ft 15s 12s 4 7 mph 1020mb 52f 55f
10:50pm 9ft 15s 12s 4 7 mph 1020.1mb 52f 55f
9:50pm 8ft 15s 11s 4 9 mph 1020.1mb 53f 56f
8:50pm 7.5ft 15s 11s 4 7 mph 1020.4mb 53f 57f
7:50pm 8ft 15s 11s 7 9 mph 1020.6mb 53f 57f
6:50pm 9ft 16s 12s 7 9 mph 1020.9mb 53f 57f
5:50pm 8ft 15s 11s 4 7 mph 1021mb 53f 57f
4:50pm 8ft 16s 11s 7 9 mph 1020.9mb 53f 57f
3:50pm 7ft 15s 10s 9 11 mph 1020.7mb 53f 57f
2:50pm 8ft 15s 10s 7 9 mph 1020.6mb 53f 57f
1:50pm 8ft 14s 10s  -  2 mph 1020.8mb 53f 61f
12:50pm 8.5ft 15s 11s  -  2 mph 1021.2mb 54f 58f
11:50am 8.5ft 15s 11s 2 4 mph 1022mb 53f 56f
10:50am 8ft 16s 11s 4 7 mph 1022mb 53f 56f
9:50am 9ft 15s 12s 2
mph
1022.1mb 52f 61f
8:50am 9ft 16s 12s 4
mph
1021.7mb 52f 58f
7:50am 9.5ft 17s 13s 7
mph
1021.9mb 52f 56f
6:50am 8.5ft 17s 12s 4 7 mph 1022.2mb 52f 54f
5:50am 8ft 17s 12s 4 7 mph 1022.4mb 52f 54f
4:50am 6ft 17s 10s 2 4 mph 1022.6mb 52f 53f
3:50am 6ft 19s 10s 7
mph
1022.8mb 52f 54f
2:50am 5.5ft 19s 9s 4 7 mph 1023.3mb 52f 53f
1:50am 6ft 12s 8s 7
mph
1023.5mb 52f 54f
12:50am 6ft 11s 8s 9
mph
1024mb 52f 54f
Sun 02/07 11:50pm 5.5ft 11s 8s 11
mph
1024.3mb 52f 55f
10:50pm 6ft 11s 8s 11
mph
1024.6mb 52f 55f
9:50pm 6ft 11s 8s 13 16 mph 1024.9mb 52f 55f